sensor_id;sensor_type;location;lat;lon;timestamp;temperature;humidity
26342;DHT22;14054;50.108;8.640;2023-10-09T00:01:28;14.60;99.90
26342;DHT22;14054;50.108;8.640;2023-10-09T00:03:56;14.60;99.90
26342;DHT22;14054;50.108;8.640;2023-10-09T00:06:22;14.60;99.90
26342;DHT22;14054;50.108;8.640;2023-10-09T00:09:03;14.60;99.90
26342;DHT22;14054;50.108;8.640;2023-10-09T00:11:42;14.50;99.90
26342;DHT22;14054;50.108;8.640;2023-10-09T00:14:12;14.60;99.90
26342;DHT22;14054;50.108;8.640;2023-10-09T00:16:41;14.50;99.90
26342;DHT22;14054;50.108;8.640;2023-10-09T00:19:12;14.60;99.90
26342;DHT22;14054;50.108;8.640;2023-10-09T00:21:43;14.50;99.90
26342;DHT22;14054;50.108;8.640;2023-10-09T00:24:09;14.50;99.90
26342;DHT22;14054;50.108;8.640;2023-10-09T00:26:49;14.60;99.90
26342;DHT22;14054;50.108;8.640;2023-10-09T00:29:15;14.60;99.90
26342;DHT22;14054;50.108;8.640;2023-10-09T00:31:53;14.50;99.90
26342;DHT22;14054;50.108;8.640;2023-10-09T00:34:38;14.50;99.90
26342;DHT22;14054;50.108;8.640;2023-10-09T00:37:07;14.50;99.90
26342;DHT22;14054;50.108;8.640;2023-10-09T00:39:42;14.50;99.90
26342;DHT22;14054;50.108;8.640;2023-10-09T00:42:14;14.50;99.90
26342;DHT22;14054;50.108;8.640;2023-10-09T00:44:51;14.40;99.90
26342;DHT22;14054;50.108;8.640;2023-10-09T00:47:17;14.50;99.90
26342;DHT22;14054;50.108;8.640;2023-10-09T00:49:59;14.50;99.90
26342;DHT22;14054;50.108;8.640;2023-10-09T00:52:29;14.40;99.90
26342;DHT22;14054;50.108;8.640;2023-10-09T00:55:02;14.50;99.90
26342;DHT22;14054;50.108;8.640;2023-10-09T00:57:46;14.50;99.90
26342;DHT22;14054;50.108;8.640;2023-10-09T01:00:25;14.50;99.90
26342;DHT22;14054;50.108;8.640;2023-10-09T01:03:01;14.50;99.90
26342;DHT22;14054;50.108;8.640;2023-10-09T01:05:43;14.50;99.90
26342;DHT22;14054;50.108;8.640;2023-10-09T01:08:17;14.50;99.90
26342;DHT22;14054;50.108;8.640;2023-10-09T01:10:50;14.60;99.90
26342;DHT22;14054;50.108;8.640;2023-10-09T01:13:17;14.60;99.90
26342;DHT22;14054;50.108;8.640;2023-10-09T01:15:43;14.60;99.90
26342;DHT22;14054;50.108;8.640;2023-10-09T01:18:10;14.60;99.90
26342;DHT22;14054;50.108;8.640;2023-10-09T01:20:36;14.60;99.90
26342;DHT22;14054;50.108;8.640;2023-10-09T01:23:09;14.60;99.90
26342;DHT22;14054;50.108;8.640;2023-10-09T01:25:35;14.60;99.90
26342;DHT22;14054;50.108;8.640;2023-10-09T01:28:07;14.60;99.90
26342;DHT22;14054;50.108;8.640;2023-10-09T01:30:32;14.70;99.90
26342;DHT22;14054;50.108;8.640;2023-10-09T01:32:58;14.60;99.90
26342;DHT22;14054;50.108;8.640;2023-10-09T01:35:37;14.60;99.90
26342;DHT22;14054;50.108;8.640;2023-10-09T01:38:11;14.60;99.90
26342;DHT22;14054;50.108;8.640;2023-10-09T01:40:39;14.60;99.90
26342;DHT22;14054;50.108;8.640;2023-10-09T01:43:05;14.60;99.90
26342;DHT22;14054;50.108;8.640;2023-10-09T01:45:38;14.60;99.90
26342;DHT22;14054;50.108;8.640;2023-10-09T01:48:12;14.60;99.90
26342;DHT22;14054;50.108;8.640;2023-10-09T01:50:40;14.50;99.90
26342;DHT22;14054;50.108;8.640;2023-10-09T01:53:07;14.60;99.90
26342;DHT22;14054;50.108;8.640;2023-10-09T01:55:33;14.60;99.90
26342;DHT22;14054;50.108;8.640;2023-10-09T01:58:03;14.60;99.90
26342;DHT22;14054;50.108;8.640;2023-10-09T02:00:34;14.60;99.90
26342;DHT22;14054;50.108;8.640;2023-10-09T02:03:07;14.60;99.90
26342;DHT22;14054;50.108;8.640;2023-10-09T02:05:38;14.60;99.90
26342;DHT22;14054;50.108;8.640;2023-10-09T02:08:03;14.60;99.90
26342;DHT22;14054;50.108;8.640;2023-10-09T02:10:30;14.50;99.90
26342;DHT22;14054;50.108;8.640;2023-10-09T02:12:57;14.50;99.90
26342;DHT22;14054;50.108;8.640;2023-10-09T02:15:26;14.50;99.90
26342;DHT22;14054;50.108;8.640;2023-10-09T02:18:16;14.50;99.90
26342;DHT22;14054;50.108;8.640;2023-10-09T02:20:48;14.60;99.90
26342;DHT22;14054;50.108;8.640;2023-10-09T02:23:30;14.50;99.90
26342;DHT22;14054;50.108;8.640;2023-10-09T02:26:07;14.50;99.90
26342;DHT22;14054;50.108;8.640;2023-10-09T02:28:33;14.50;99.90
26342;DHT22;14054;50.108;8.640;2023-10-09T02:31:01;14.60;99.90
26342;DHT22;14054;50.108;8.640;2023-10-09T02:33:35;14.50;99.90
26342;DHT22;14054;50.108;8.640;2023-10-09T02:36:04;14.40;99.90
26342;DHT22;14054;50.108;8.640;2023-10-09T02:38:32;14.40;99.90
26342;DHT22;14054;50.108;8.640;2023-10-09T02:41:01;14.40;99.90
26342;DHT22;14054;50.108;8.640;2023-10-09T02:43:43;14.40;99.90
26342;DHT22;14054;50.108;8.640;2023-10-09T02:46:21;14.40;99.90
26342;DHT22;14054;50.108;8.640;2023-10-09T02:48:54;14.40;99.90
26342;DHT22;14054;50.108;8.640;2023-10-09T02:51:25;14.40;99.90
26342;DHT22;14054;50.108;8.640;2023-10-09T02:53:57;14.40;99.90
26342;DHT22;14054;50.108;8.640;2023-10-09T02:56:24;14.40;99.90
26342;DHT22;14054;50.108;8.640;2023-10-09T02:59:01;14.50;99.90
26342;DHT22;14054;50.108;8.640;2023-10-09T03:01:31;14.40;99.90
26342;DHT22;14054;50.108;8.640;2023-10-09T03:03:56;14.40;99.90
26342;DHT22;14054;50.108;8.640;2023-10-09T03:06:24;14.40;99.90
26342;DHT22;14054;50.108;8.640;2023-10-09T03:08:53;14.40;99.90
26342;DHT22;14054;50.108;8.640;2023-10-09T03:11:19;14.40;99.90
26342;DHT22;14054;50.108;8.640;2023-10-09T03:13:45;14.40;99.90
26342;DHT22;14054;50.108;8.640;2023-10-09T03:16:11;14.40;99.90
26342;DHT22;14054;50.108;8.640;2023-10-09T03:18:41;14.40;99.90
26342;DHT22;14054;50.108;8.640;2023-10-09T03:21:07;14.40;99.90
26342;DHT22;14054;50.108;8.640;2023-10-09T03:23:33;14.40;99.90
26342;DHT22;14054;50.108;8.640;2023-10-09T03:25:59;14.30;99.90
26342;DHT22;14054;50.108;8.640;2023-10-09T03:28:25;14.30;99.90
26342;DHT22;14054;50.108;8.640;2023-10-09T03:30:50;14.30;99.90
26342;DHT22;14054;50.108;8.640;2023-10-09T03:33:17;14.30;99.90
26342;DHT22;14054;50.108;8.640;2023-10-09T03:35:42;14.30;99.90
26342;DHT22;14054;50.108;8.640;2023-10-09T03:38:08;14.30;99.90
26342;DHT22;14054;50.108;8.640;2023-10-09T03:40:43;14.40;99.90
26342;DHT22;14054;50.108;8.640;2023-10-09T03:43:09;14.40;99.90
26342;DHT22;14054;50.108;8.640;2023-10-09T03:45:39;14.40;99.90
26342;DHT22;14054;50.108;8.640;2023-10-09T03:48:11;14.40;99.90
26342;DHT22;14054;50.108;8.640;2023-10-09T03:50:46;14.50;99.90
26342;DHT22;14054;50.108;8.640;2023-10-09T03:53:11;14.50;99.90
26342;DHT22;14054;50.108;8.640;2023-10-09T03:55:38;14.50;99.90
26342;DHT22;14054;50.108;8.640;2023-10-09T03:58:05;14.50;99.90
26342;DHT22;14054;50.108;8.640;2023-10-09T04:00:32;14.50;99.90
26342;DHT22;14054;50.108;8.640;2023-10-09T04:03:06;14.50;99.90
26342;DHT22;14054;50.108;8.640;2023-10-09T04:05:32;14.50;99.90
26342;DHT22;14054;50.108;8.640;2023-10-09T04:07:57;14.50;99.90
26342;DHT22;14054;50.108;8.640;2023-10-09T04:10:27;14.50;99.90
26342;DHT22;14054;50.108;8.640;2023-10-09T04:13:09;14.50;99.90
26342;DHT22;14054;50.108;8.640;2023-10-09T04:15:38;14.50;99.90
26342;DHT22;14054;50.108;8.640;2023-10-09T04:18:07;14.50;99.90
26342;DHT22;14054;50.108;8.640;2023-10-09T04:20:40;14.40;99.90
26342;DHT22;14054;50.108;8.640;2023-10-09T04:23:24;14.50;99.90
26342;DHT22;14054;50.108;8.640;2023-10-09T04:26:10;14.40;99.90
26342;DHT22;14054;50.108;8.640;2023-10-09T04:28:39;14.40;99.90
26342;DHT22;14054;50.108;8.640;2023-10-09T04:31:07;14.40;99.90
26342;DHT22;14054;50.108;8.640;2023-10-09T04:33:32;14.40;99.90
26342;DHT22;14054;50.108;8.640;2023-10-09T04:36:02;14.40;99.90
26342;DHT22;14054;50.108;8.640;2023-10-09T04:38:49;14.40;99.90
26342;DHT22;14054;50.108;8.640;2023-10-09T04:41:32;14.40;99.90
26342;DHT22;14054;50.108;8.640;2023-10-09T04:43:59;14.30;99.90
26342;DHT22;14054;50.108;8.640;2023-10-09T04:46:43;14.30;99.90
26342;DHT22;14054;50.108;8.640;2023-10-09T04:49:10;14.30;99.90
26342;DHT22;14054;50.108;8.640;2023-10-09T04:51:53;14.30;99.90
26342;DHT22;14054;50.108;8.640;2023-10-09T04:54:31;14.30;99.90
26342;DHT22;14054;50.108;8.640;2023-10-09T04:57:26;14.30;99.90
26342;DHT22;14054;50.108;8.640;2023-10-09T04:59:52;14.30;99.90
26342;DHT22;14054;50.108;8.640;2023-10-09T05:02:17;14.30;99.90
26342;DHT22;14054;50.108;8.640;2023-10-09T05:04:48;14.30;99.90
26342;DHT22;14054;50.108;8.640;2023-10-09T05:07:34;14.30;99.90
26342;DHT22;14054;50.108;8.640;2023-10-09T05:10:18;14.40;99.90
26342;DHT22;14054;50.108;8.640;2023-10-09T05:12:49;14.30;99.90
26342;DHT22;14054;50.108;8.640;2023-10-09T05:15:25;14.30;99.90
26342;DHT22;14054;50.108;8.640;2023-10-09T05:17:56;14.30;99.90
26342;DHT22;14054;50.108;8.640;2023-10-09T05:20:23;14.40;99.90
26342;DHT22;14054;50.108;8.640;2023-10-09T05:22:50;14.30;99.90
26342;DHT22;14054;50.108;8.640;2023-10-09T05:25:28;14.30;99.90
26342;DHT22;14054;50.108;8.640;2023-10-09T05:28:16;14.30;99.90
26342;DHT22;14054;50.108;8.640;2023-10-09T05:30:56;14.30;99.90
26342;DHT22;14054;50.108;8.640;2023-10-09T05:33:35;14.30;99.90
26342;DHT22;14054;50.108;8.640;2023-10-09T05:36:06;14.30;99.90
26342;DHT22;14054;50.108;8.640;2023-10-09T05:38:50;14.30;99.90
26342;DHT22;14054;50.108;8.640;2023-10-09T05:41:25;14.20;99.90
26342;DHT22;14054;50.108;8.640;2023-10-09T05:44:11;14.20;99.90
26342;DHT22;14054;50.108;8.640;2023-10-09T05:46:55;14.30;99.90
26342;DHT22;14054;50.108;8.640;2023-10-09T05:49:39;14.20;99.90
26342;DHT22;14054;50.108;8.640;2023-10-09T05:52:22;14.20;99.90
26342;DHT22;14054;50.108;8.640;2023-10-09T05:55:06;14.20;99.90
26342;DHT22;14054;50.108;8.640;2023-10-09T05:57:53;14.30;99.90
26342;DHT22;14054;50.108;8.640;2023-10-09T06:00:37;14.30;99.90
26342;DHT22;14054;50.108;8.640;2023-10-09T06:03:21;14.30;99.90
26342;DHT22;14054;50.108;8.640;2023-10-09T06:05:54;14.40;99.90
26342;DHT22;14054;50.108;8.640;2023-10-09T06:08:24;14.30;99.90
26342;DHT22;14054;50.108;8.640;2023-10-09T06:10:55;14.40;99.90
26342;DHT22;14054;50.108;8.640;2023-10-09T06:13:39;14.50;99.90
26342;DHT22;14054;50.108;8.640;2023-10-09T06:16:11;14.50;99.90
26342;DHT22;14054;50.108;8.640;2023-10-09T06:18:55;14.50;99.90
26342;DHT22;14054;50.108;8.640;2023-10-09T06:21:36;14.60;99.90
26342;DHT22;14054;50.108;8.640;2023-10-09T06:24:12;14.60;99.90
26342;DHT22;14054;50.108;8.640;2023-10-09T06:26:44;14.70;99.90
26342;DHT22;14054;50.108;8.640;2023-10-09T06:29:29;14.70;99.90
26342;DHT22;14054;50.108;8.640;2023-10-09T06:32:07;14.70;99.90
26342;DHT22;14054;50.108;8.640;2023-10-09T06:34:53;14.80;99.90
26342;DHT22;14054;50.108;8.640;2023-10-09T06:37:23;14.80;99.90
26342;DHT22;14054;50.108;8.640;2023-10-09T06:39:52;14.80;99.90
26342;DHT22;14054;50.108;8.640;2023-10-09T06:42:20;14.90;99.90
26342;DHT22;14054;50.108;8.640;2023-10-09T06:45:02;14.90;99.90
26342;DHT22;14054;50.108;8.640;2023-10-09T06:47:35;14.90;99.90
26342;DHT22;14054;50.108;8.640;2023-10-09T06:50:11;14.90;99.90
26342;DHT22;14054;50.108;8.640;2023-10-09T06:52:49;15.00;99.90
26342;DHT22;14054;50.108;8.640;2023-10-09T06:55:44;15.00;99.90
26342;DHT22;14054;50.108;8.640;2023-10-09T06:58:19;15.00;99.90
26342;DHT22;14054;50.108;8.640;2023-10-09T07:00:51;15.00;99.90
26342;DHT22;14054;50.108;8.640;2023-10-09T07:03:29;15.00;99.90
26342;DHT22;14054;50.108;8.640;2023-10-09T07:06:05;15.00;99.90
26342;DHT22;14054;50.108;8.640;2023-10-09T07:08:38;15.10;99.90
26342;DHT22;14054;50.108;8.640;2023-10-09T07:11:04;15.10;99.90
26342;DHT22;14054;50.108;8.640;2023-10-09T07:13:48;15.20;99.90
26342;DHT22;14054;50.108;8.640;2023-10-09T07:16:22;15.20;99.90
26342;DHT22;14054;50.108;8.640;2023-10-09T07:18:55;15.30;99.90
26342;DHT22;14054;50.108;8.640;2023-10-09T07:21:35;15.30;99.90
26342;DHT22;14054;50.108;8.640;2023-10-09T07:24:01;15.40;99.90
26342;DHT22;14054;50.108;8.640;2023-10-09T07:26:42;15.50;99.90
26342;DHT22;14054;50.108;8.640;2023-10-09T07:29:13;15.50;99.90
26342;DHT22;14054;50.108;8.640;2023-10-09T07:31:42;15.50;99.90
26342;DHT22;14054;50.108;8.640;2023-10-09T07:34:11;15.60;99.90
26342;DHT22;14054;50.108;8.640;2023-10-09T07:36:56;15.60;99.90
26342;DHT22;14054;50.108;8.640;2023-10-09T07:39:22;15.60;99.90
26342;DHT22;14054;50.108;8.640;2023-10-09T07:41:48;15.60;99.90
26342;DHT22;14054;50.108;8.640;2023-10-09T07:44:41;15.60;99.90
26342;DHT22;14054;50.108;8.640;2023-10-09T07:47:12;15.60;99.90
26342;DHT22;14054;50.108;8.640;2023-10-09T07:49:42;15.60;99.90
26342;DHT22;14054;50.108;8.640;2023-10-09T07:52:14;15.70;99.90
26342;DHT22;14054;50.108;8.640;2023-10-09T07:54:40;15.70;99.90
26342;DHT22;14054;50.108;8.640;2023-10-09T07:57:17;15.70;99.90
26342;DHT22;14054;50.108;8.640;2023-10-09T07:59:43;15.80;99.90
26342;DHT22;14054;50.108;8.640;2023-10-09T08:02:27;15.80;99.90
26342;DHT22;14054;50.108;8.640;2023-10-09T08:04:59;15.90;99.90
26342;DHT22;14054;50.108;8.640;2023-10-09T08:07:48;15.90;99.90
26342;DHT22;14054;50.108;8.640;2023-10-09T08:10:22;16.00;99.90
26342;DHT22;14054;50.108;8.640;2023-10-09T08:12:48;16.10;99.90
26342;DHT22;14054;50.108;8.640;2023-10-09T08:15:17;16.10;99.90
26342;DHT22;14054;50.108;8.640;2023-10-09T08:17:56;16.20;99.90
26342;DHT22;14054;50.108;8.640;2023-10-09T08:20:25;16.20;99.90
26342;DHT22;14054;50.108;8.640;2023-10-09T08:22:52;16.30;99.90
26342;DHT22;14054;50.108;8.640;2023-10-09T08:25:21;16.30;99.90
26342;DHT22;14054;50.108;8.640;2023-10-09T08:28:02;16.30;99.90
26342;DHT22;14054;50.108;8.640;2023-10-09T08:30:57;16.20;99.90
26342;DHT22;14054;50.108;8.640;2023-10-09T08:33:30;16.20;99.90
26342;DHT22;14054;50.108;8.640;2023-10-09T08:36:07;16.20;99.90
26342;DHT22;14054;50.108;8.640;2023-10-09T08:38:33;16.10;99.90
26342;DHT22;14054;50.108;8.640;2023-10-09T08:41:10;16.10;99.90
26342;DHT22;14054;50.108;8.640;2023-10-09T08:43:48;16.10;99.90
26342;DHT22;14054;50.108;8.640;2023-10-09T08:46:23;16.10;99.90
26342;DHT22;14054;50.108;8.640;2023-10-09T08:48:49;16.10;99.90
26342;DHT22;14054;50.108;8.640;2023-10-09T08:51:17;16.20;99.90
26342;DHT22;14054;50.108;8.640;2023-10-09T08:53:43;16.10;99.90
26342;DHT22;14054;50.108;8.640;2023-10-09T08:56:12;16.20;99.90
26342;DHT22;14054;50.108;8.640;2023-10-09T08:58:40;16.30;99.90
26342;DHT22;14054;50.108;8.640;2023-10-09T09:01:06;16.40;99.90
26342;DHT22;14054;50.108;8.640;2023-10-09T09:03:41;16.40;99.90
26342;DHT22;14054;50.108;8.640;2023-10-09T09:06:09;16.50;99.90
26342;DHT22;14054;50.108;8.640;2023-10-09T09:08:35;16.50;99.90
26342;DHT22;14054;50.108;8.640;2023-10-09T09:11:09;16.60;99.90
26342;DHT22;14054;50.108;8.640;2023-10-09T09:13:43;16.60;99.90
26342;DHT22;14054;50.108;8.640;2023-10-09T09:16:21;16.60;99.90
26342;DHT22;14054;50.108;8.640;2023-10-09T09:18:50;16.70;99.90
26342;DHT22;14054;50.108;8.640;2023-10-09T09:21:25;16.70;99.90
26342;DHT22;14054;50.108;8.640;2023-10-09T09:24:01;16.70;99.90
26342;DHT22;14054;50.108;8.640;2023-10-09T09:26:38;16.70;99.90
26342;DHT22;14054;50.108;8.640;2023-10-09T09:29:10;16.70;99.90
26342;DHT22;14054;50.108;8.640;2023-10-09T09:31:36;16.60;99.90
26342;DHT22;14054;50.108;8.640;2023-10-09T09:34:07;16.60;99.90
26342;DHT22;14054;50.108;8.640;2023-10-09T09:36:58;16.70;99.90
26342;DHT22;14054;50.108;8.640;2023-10-09T09:39:27;16.70;99.90
26342;DHT22;14054;50.108;8.640;2023-10-09T09:41:55;16.70;99.90
26342;DHT22;14054;50.108;8.640;2023-10-09T09:44:22;16.80;99.90
26342;DHT22;14054;50.108;8.640;2023-10-09T09:46:51;16.90;99.90
26342;DHT22;14054;50.108;8.640;2023-10-09T09:49:19;17.00;99.90
26342;DHT22;14054;50.108;8.640;2023-10-09T09:51:47;17.10;99.90
26342;DHT22;14054;50.108;8.640;2023-10-09T09:54:13;17.10;99.90
26342;DHT22;14054;50.108;8.640;2023-10-09T09:56:44;17.20;99.90
26342;DHT22;14054;50.108;8.640;2023-10-09T09:59:17;17.20;99.90
26342;DHT22;14054;50.108;8.640;2023-10-09T10:01:57;17.20;99.90
26342;DHT22;14054;50.108;8.640;2023-10-09T10:04:28;17.20;99.90
26342;DHT22;14054;50.108;8.640;2023-10-09T10:06:55;17.30;99.90
26342;DHT22;14054;50.108;8.640;2023-10-09T10:09:35;17.30;99.90
26342;DHT22;14054;50.108;8.640;2023-10-09T10:12:10;17.30;99.90
26342;DHT22;14054;50.108;8.640;2023-10-09T10:14:54;17.30;99.90
26342;DHT22;14054;50.108;8.640;2023-10-09T10:17:27;17.30;99.90
26342;DHT22;14054;50.108;8.640;2023-10-09T10:22:26;17.30;99.90
26342;DHT22;14054;50.108;8.640;2023-10-09T10:24:53;17.30;99.90
26342;DHT22;14054;50.108;8.640;2023-10-09T10:27:21;17.40;99.90
26342;DHT22;14054;50.108;8.640;2023-10-09T10:32:53;17.40;99.90
26342;DHT22;14054;50.108;8.640;2023-10-09T10:35:19;17.50;99.90
26342;DHT22;14054;50.108;8.640;2023-10-09T10:37:58;17.60;99.90
26342;DHT22;14054;50.108;8.640;2023-10-09T10:40:33;17.70;99.90
26342;DHT22;14054;50.108;8.640;2023-10-09T10:43:18;17.90;99.90
26342;DHT22;14054;50.108;8.640;2023-10-09T10:46:16;18.00;99.90
26342;DHT22;14054;50.108;8.640;2023-10-09T10:49:01;18.00;99.90
26342;DHT22;14054;50.108;8.640;2023-10-09T10:51:39;18.10;99.90
26342;DHT22;14054;50.108;8.640;2023-10-09T10:54:09;18.10;99.90
26342;DHT22;14054;50.108;8.640;2023-10-09T10:56:53;18.30;99.90
26342;DHT22;14054;50.108;8.640;2023-10-09T10:59:23;18.40;99.90
26342;DHT22;14054;50.108;8.640;2023-10-09T11:01:50;18.70;99.90
26342;DHT22;14054;50.108;8.640;2023-10-09T11:04:19;19.10;99.90
26342;DHT22;14054;50.108;8.640;2023-10-09T11:06:58;19.30;99.90
26342;DHT22;14054;50.108;8.640;2023-10-09T11:09:44;19.30;99.90
26342;DHT22;14054;50.108;8.640;2023-10-09T11:12:29;19.40;99.90
26342;DHT22;14054;50.108;8.640;2023-10-09T11:15:09;19.50;99.90
26342;DHT22;14054;50.108;8.640;2023-10-09T11:18:01;19.50;99.90
26342;DHT22;14054;50.108;8.640;2023-10-09T11:20:34;19.60;99.90
26342;DHT22;14054;50.108;8.640;2023-10-09T11:23:01;19.90;99.90
26342;DHT22;14054;50.108;8.640;2023-10-09T11:25:37;20.20;99.90
26342;DHT22;14054;50.108;8.640;2023-10-09T11:28:16;20.20;99.90
26342;DHT22;14054;50.108;8.640;2023-10-09T11:30:53;20.30;99.90
26342;DHT22;14054;50.108;8.640;2023-10-09T11:33:21;20.40;99.90
26342;DHT22;14054;50.108;8.640;2023-10-09T11:35:55;20.40;99.90
26342;DHT22;14054;50.108;8.640;2023-10-09T11:38:22;20.50;99.90
26342;DHT22;14054;50.108;8.640;2023-10-09T11:40:48;20.30;99.90
26342;DHT22;14054;50.108;8.640;2023-10-09T11:43:45;20.10;99.90
26342;DHT22;14054;50.108;8.640;2023-10-09T11:46:17;20.00;99.90
26342;DHT22;14054;50.108;8.640;2023-10-09T11:49:05;19.90;99.90
26342;DHT22;14054;50.108;8.640;2023-10-09T11:51:46;19.90;99.90
26342;DHT22;14054;50.108;8.640;2023-10-09T11:54:31;19.90;99.90
26342;DHT22;14054;50.108;8.640;2023-10-09T11:56:58;20.10;99.90
26342;DHT22;14054;50.108;8.640;2023-10-09T11:59:33;20.20;99.90
26342;DHT22;14054;50.108;8.640;2023-10-09T12:02:06;20.20;99.90
26342;DHT22;14054;50.108;8.640;2023-10-09T12:04:36;20.30;99.90
26342;DHT22;14054;50.108;8.640;2023-10-09T12:07:02;20.50;99.90
26342;DHT22;14054;50.108;8.640;2023-10-09T12:09:34;20.70;99.90
26342;DHT22;14054;50.108;8.640;2023-10-09T12:12:04;21.00;99.90
26342;DHT22;14054;50.108;8.640;2023-10-09T12:14:30;21.00;99.90
26342;DHT22;14054;50.108;8.640;2023-10-09T12:17:06;21.00;99.90
26342;DHT22;14054;50.108;8.640;2023-10-09T12:19:33;21.00;99.90
26342;DHT22;14054;50.108;8.640;2023-10-09T12:22:02;20.90;99.90
26342;DHT22;14054;50.108;8.640;2023-10-09T12:24:34;20.70;99.90
26342;DHT22;14054;50.108;8.640;2023-10-09T12:27:00;20.60;99.90
26342;DHT22;14054;50.108;8.640;2023-10-09T12:29:28;20.60;99.90
26342;DHT22;14054;50.108;8.640;2023-10-09T12:31:56;20.50;99.90
26342;DHT22;14054;50.108;8.640;2023-10-09T12:34:27;20.50;99.90
26342;DHT22;14054;50.108;8.640;2023-10-09T12:36:53;20.50;99.90
26342;DHT22;14054;50.108;8.640;2023-10-09T12:39:20;20.50;99.90
26342;DHT22;14054;50.108;8.640;2023-10-09T12:41:46;20.50;99.90
26342;DHT22;14054;50.108;8.640;2023-10-09T12:44:14;20.50;99.90
26342;DHT22;14054;50.108;8.640;2023-10-09T12:46:44;20.50;99.90
26342;DHT22;14054;50.108;8.640;2023-10-09T12:49:22;20.60;99.90
26342;DHT22;14054;50.108;8.640;2023-10-09T12:51:53;20.70;99.90
26342;DHT22;14054;50.108;8.640;2023-10-09T12:54:19;20.70;99.90
26342;DHT22;14054;50.108;8.640;2023-10-09T12:56:56;20.70;99.90
26342;DHT22;14054;50.108;8.640;2023-10-09T12:59:24;20.70;99.90
26342;DHT22;14054;50.108;8.640;2023-10-09T13:01:50;20.70;99.90
26342;DHT22;14054;50.108;8.640;2023-10-09T13:04:23;20.80;99.90
26342;DHT22;14054;50.108;8.640;2023-10-09T13:06:49;20.90;99.90
26342;DHT22;14054;50.108;8.640;2023-10-09T13:09:19;20.90;99.90
26342;DHT22;14054;50.108;8.640;2023-10-09T13:11:59;20.90;99.90
26342;DHT22;14054;50.108;8.640;2023-10-09T13:14:26;21.00;99.90
26342;DHT22;14054;50.108;8.640;2023-10-09T13:16:52;21.00;99.90
26342;DHT22;14054;50.108;8.640;2023-10-09T13:19:18;21.10;99.90
26342;DHT22;14054;50.108;8.640;2023-10-09T13:21:44;21.10;99.90
26342;DHT22;14054;50.108;8.640;2023-10-09T13:24:10;21.20;99.90
26342;DHT22;14054;50.108;8.640;2023-10-09T13:26:39;21.10;99.90
26342;DHT22;14054;50.108;8.640;2023-10-09T13:29:06;21.10;99.90
26342;DHT22;14054;50.108;8.640;2023-10-09T13:31:35;21.10;99.90
26342;DHT22;14054;50.108;8.640;2023-10-09T13:34:04;21.10;99.90
26342;DHT22;14054;50.108;8.640;2023-10-09T13:36:32;21.00;99.90
26342;DHT22;14054;50.108;8.640;2023-10-09T13:39:03;21.00;99.90
26342;DHT22;14054;50.108;8.640;2023-10-09T13:41:50;21.00;99.90
26342;DHT22;14054;50.108;8.640;2023-10-09T13:44:15;21.00;99.90
26342;DHT22;14054;50.108;8.640;2023-10-09T13:46:43;21.10;99.90
26342;DHT22;14054;50.108;8.640;2023-10-09T13:49:10;21.10;99.90
26342;DHT22;14054;50.108;8.640;2023-10-09T13:51:42;21.00;99.90
26342;DHT22;14054;50.108;8.640;2023-10-09T13:54:14;21.00;99.90
26342;DHT22;14054;50.108;8.640;2023-10-09T13:56:49;21.00;99.90
26342;DHT22;14054;50.108;8.640;2023-10-09T13:59:21;21.00;99.90
26342;DHT22;14054;50.108;8.640;2023-10-09T14:01:49;21.00;99.90
26342;DHT22;14054;50.108;8.640;2023-10-09T14:04:14;21.00;99.90
26342;DHT22;14054;50.108;8.640;2023-10-09T14:06:44;21.00;99.90
26342;DHT22;14054;50.108;8.640;2023-10-09T14:09:10;21.00;99.90
26342;DHT22;14054;50.108;8.640;2023-10-09T14:11:56;21.00;99.90
26342;DHT22;14054;50.108;8.640;2023-10-09T14:14:43;21.00;99.90
26342;DHT22;14054;50.108;8.640;2023-10-09T14:17:18;21.00;99.90
26342;DHT22;14054;50.108;8.640;2023-10-09T14:19:52;21.00;99.90
26342;DHT22;14054;50.108;8.640;2023-10-09T14:22:22;20.90;99.90
26342;DHT22;14054;50.108;8.640;2023-10-09T14:24:52;21.00;99.90
26342;DHT22;14054;50.108;8.640;2023-10-09T14:27:23;20.90;99.90
26342;DHT22;14054;50.108;8.640;2023-10-09T14:29:55;21.00;99.90
26342;DHT22;14054;50.108;8.640;2023-10-09T14:32:27;20.90;99.90
26342;DHT22;14054;50.108;8.640;2023-10-09T14:35:03;21.00;99.90
26342;DHT22;14054;50.108;8.640;2023-10-09T14:37:38;21.00;99.90
26342;DHT22;14054;50.108;8.640;2023-10-09T14:40:05;20.90;99.90
26342;DHT22;14054;50.108;8.640;2023-10-09T14:42:38;20.90;99.90
26342;DHT22;14054;50.108;8.640;2023-10-09T14:45:04;20.90;99.90
26342;DHT22;14054;50.108;8.640;2023-10-09T14:47:33;20.90;99.90
26342;DHT22;14054;50.108;8.640;2023-10-09T14:49:58;20.90;99.90
26342;DHT22;14054;50.108;8.640;2023-10-09T14:52:27;20.80;99.90
26342;DHT22;14054;50.108;8.640;2023-10-09T14:54:52;20.80;99.90
26342;DHT22;14054;50.108;8.640;2023-10-09T14:57:18;20.80;99.90
26342;DHT22;14054;50.108;8.640;2023-10-09T14:59:44;20.70;99.90
26342;DHT22;14054;50.108;8.640;2023-10-09T15:02:09;20.70;99.90
26342;DHT22;14054;50.108;8.640;2023-10-09T15:04:35;20.70;99.90
26342;DHT22;14054;50.108;8.640;2023-10-09T15:07:03;20.60;99.90
26342;DHT22;14054;50.108;8.640;2023-10-09T15:09:32;20.60;99.90
26342;DHT22;14054;50.108;8.640;2023-10-09T15:12:00;20.50;99.90
26342;DHT22;14054;50.108;8.640;2023-10-09T15:14:25;20.50;99.90
26342;DHT22;14054;50.108;8.640;2023-10-09T15:16:51;20.50;99.90
26342;DHT22;14054;50.108;8.640;2023-10-09T15:19:16;20.50;99.90
26342;DHT22;14054;50.108;8.640;2023-10-09T15:21:42;20.50;99.90
26342;DHT22;14054;50.108;8.640;2023-10-09T15:24:15;20.50;99.90
26342;DHT22;14054;50.108;8.640;2023-10-09T15:26:42;20.50;99.90
26342;DHT22;14054;50.108;8.640;2023-10-09T15:29:08;20.50;99.90
26342;DHT22;14054;50.108;8.640;2023-10-09T15:31:35;20.50;99.90
26342;DHT22;14054;50.108;8.640;2023-10-09T15:34:01;20.50;99.90
26342;DHT22;14054;50.108;8.640;2023-10-09T15:36:27;20.50;99.90
26342;DHT22;14054;50.108;8.640;2023-10-09T15:38:57;20.40;99.90
26342;DHT22;14054;50.108;8.640;2023-10-09T15:41:28;20.40;99.90
26342;DHT22;14054;50.108;8.640;2023-10-09T15:43:57;20.40;99.90
26342;DHT22;14054;50.108;8.640;2023-10-09T15:46:22;20.40;99.90
26342;DHT22;14054;50.108;8.640;2023-10-09T15:48:48;20.50;99.90
26342;DHT22;14054;50.108;8.640;2023-10-09T15:51:16;20.50;99.90
26342;DHT22;14054;50.108;8.640;2023-10-09T15:53:43;20.50;99.90
26342;DHT22;14054;50.108;8.640;2023-10-09T15:56:10;20.40;99.90
26342;DHT22;14054;50.108;8.640;2023-10-09T15:58:38;20.40;99.90
26342;DHT22;14054;50.108;8.640;2023-10-09T16:01:11;20.30;99.90
26342;DHT22;14054;50.108;8.640;2023-10-09T16:03:39;20.30;99.90
26342;DHT22;14054;50.108;8.640;2023-10-09T16:06:05;20.20;99.90
26342;DHT22;14054;50.108;8.640;2023-10-09T16:08:33;20.20;99.90